createdAt,value
2018-06-28T07:18:20.603Z,1000
2018-06-28T07:23:33.051Z,1068
2018-06-28T07:28:44.730Z,1136
2018-06-28T07:33:56.772Z,1200
2018-06-28T07:39:08.868Z,1232
2018-06-28T07:44:20.917Z,1268
2018-06-28T07:49:32.981Z,1304
2018-06-28T07:54:45.236Z,1364
2018-06-28T07:59:57.229Z,1412
2018-06-28T08:05:09.341Z,1428
2018-06-28T08:10:21.293Z,1452
2018-06-28T08:15:33.382Z,1592
2018-06-28T08:20:45.648Z,1684
2018-06-28T08:25:57.508Z,1760
2018-06-28T08:31:09.577Z,1980
2018-06-28T08:36:21.657Z,1996
2018-06-28T08:41:33.744Z,1736
2018-06-28T08:46:45.809Z,2044
2018-06-28T08:51:57.858Z,2048
2018-06-28T08:57:10.057Z,1988
2018-06-28T09:02:22.060Z,1324
2018-06-28T09:07:27.764Z,1600
2018-06-28T09:21:41.640Z,148
2018-06-28T09:54:08.844Z,940
2018-06-28T09:59:18.800Z,888
2018-06-28T10:04:28.572Z,824
2018-06-28T10:09:38.403Z,744
2018-06-28T10:14:48.269Z,764
2018-06-28T10:19:58.060Z,820
2018-06-28T10:25:07.936Z,716
2018-06-28T10:30:17.805Z,736
2018-06-28T10:35:27.562Z,744
2018-06-28T10:40:37.598Z,804
2018-06-28T10:45:47.219Z,760
2018-06-28T10:50:57.060Z,880
2018-06-28T10:56:07.037Z,896
2018-06-28T11:01:16.716Z,884
2018-06-28T11:06:26.559Z,1000
2018-06-28T11:11:36.383Z,688
2018-06-28T11:16:46.264Z,732
2018-06-28T11:21:56.206Z,704
2018-06-28T11:27:05.892Z,776
2018-06-28T11:32:15.828Z,704
2018-06-28T11:37:28.802Z,628
2018-06-28T11:42:35.437Z,648
2018-06-28T11:47:45.333Z,652
2018-06-28T11:52:55.076Z,484
2018-06-28T11:58:04.940Z,536
2018-06-28T12:03:14.827Z,576
2018-06-28T12:08:24.641Z,884
2018-06-28T12:13:34.500Z,652
2018-06-28T12:18:44.381Z,636
2018-06-28T12:23:54.257Z,628
2018-06-28T12:29:04.231Z,664
2018-06-28T12:34:14.126Z,592
2018-06-28T12:39:23.896Z,564
2018-06-28T12:44:33.791Z,572
2018-06-28T12:49:43.969Z,452
2018-06-28T12:54:53.621Z,520
2018-06-28T13:00:03.488Z,548
2018-06-28T13:05:13.528Z,536
2018-06-28T13:10:23.161Z,484
2018-06-28T13:15:33.198Z,504
2018-06-28T13:20:42.928Z,500
2018-06-28T13:25:52.940Z,592
2018-06-28T13:31:02.715Z,580
2018-06-28T13:36:12.570Z,464
2018-06-28T13:41:22.486Z,516
2018-06-28T13:46:32.769Z,612
2018-06-28T13:51:42.164Z,480
2018-06-28T13:56:51.981Z,480
2018-06-28T14:02:01.891Z,448
